Terminal Aerodrome Forecast
Issued by NWS

Home | Current Version | Previous Version | Text Only | Print | Product List | Glossary On
Versions: 1 2 3 4 5 6 7 8 9 10 11 12 13 14 15 16 17 18 19 20 21 22 23 24 25
000
FTUS43 KEAX 261725
TAFMKC
TAF
KMKC 261725Z 2618/2718 09007KT P6SM OVC050
     FM262300 14009KT P6SM VCTS BKN030CB
     FM270200 16011KT 4SM -TSRA BKN025CB
      TEMPO 2704/2706 VRB20G40KT 1SM +TSRA
     FM271200 12010KT P6SM VCTS BKN035CB=

USA.gov is the U.S. government's official web portal to all federal, state and local government web resources and services.